• Join FlightAware (Why Join?)
  • Login
  • US Flag 
12:41AM EDT


 

Airport Tracker/Info


-or-


 

Live Flight TrackerFlight Track Log ✈ N870DC ✈ 07-May-2013 ✈ KBTR - KLBX

Flight Track Log - Related Links

Times and Time Zones

All times are in EDT time to prevent confusion due to time zone crossing. See the N870DC flight status page for this flight to view local times or setup timezone preferences in your user account.

Time Position Orientation Groundspeed Altitude Reporting Facility
EDT Latitude Longitude Course Direction KTS MPH feet Rate Location/Type
05:00PM 30.5697 -91.2033 254° West 190 219 32,000  Level Houston Center
05:01PM 30.5578 -91.2706 258° West 247 284 5,700 -10,980 Descending Houston Center
05:02PM 30.5394 -91.3531 256° West 259 298 9,200 3,120 Climbing Houston Center
05:03PM 30.5292 -91.4656 264° West 296 341 12,200 2,760 Climbing Houston Center
05:04PM 30.5192 -91.5747 264° West 327 376 15,000 2,700 Climbing Houston Center
05:05PM 30.4351 -91.6764 254° West  Level FlightAware Approximate
05:05PM 30.5100 -91.6875 265° West 344 396 17,800  Level Houston Center
05:06PM 30.4511 -91.7831 234° Southwest 372 428 20,600 2,220 Climbing Houston Center
05:07PM 30.3797 -91.8725 227° Southwest 376 433 22,500 2,100 Climbing Houston Center
05:08PM 30.2875 -91.9864 227° Southwest 399 459 25,000 2,100 Climbing Houston Center
05:09PM 30.2094 -92.0819 227° Southwest 406 467 26,900 1,620 Climbing Houston Center
05:10PM 30.1375 -92.1686 226° Southwest 411 473 28,400 1,560 Climbing Houston Center
05:11PM 30.0400 -92.2881 227° Southwest 419 482 30,200 1,680 Climbing Houston Center
05:12PM 29.9592 -92.3861 226° Southwest 422 486 31,900 840 Climbing Houston Center
05:13PM 29.8792 -92.4911 229° Southwest 432 497 32,000  Climbing Houston Center
05:14PM 29.8347 -92.6189 248° West 430 495 32,000  Level Houston Center
05:15PM 29.7981 -92.7483 252° West 424 488 32,000  Level Houston Center
05:16PM 29.7594 -92.8775 251° West 426 490 32,000  Level Houston Center
05:17PM 29.7125 -93.0306 251° West 422 486 32,000  Level Houston Center
05:18PM 29.6742 -93.1586 251° West 422 486 32,000  Level Houston Center
05:20PM 29.6358 -93.2867 251° West 422 486 32,000  Level Houston Center
05:21PM 29.5989 -93.4103 251° West 415 478 32,000 -60 Level Houston Center
05:22PM 29.5606 -93.5336 250° West 410 472 31,900 -1,260 Descending Houston Center
05:23PM 29.5256 -93.6519 251° West 400 460 29,500 -2,520 Descending Houston Center
05:24PM 29.4886 -93.7700 250° West 393 452 26,700 -2,880 Descending Houston Center
05:25PM 29.4439 -93.9181 251° West 405 466 23,600 -2,700 Descending Houston Center
05:26PM 29.4072 -94.0378 251° West 399 459 21,200 -2,280 Descending Houston Center
05:27PM 29.3725 -94.1492 250° West 384 442 18,900 -2,400 Descending Houston Center
05:27PM 29.3528 -94.2103 250° West 364 419 17,700 -2,160 Descending Houston Center
05:28PM 29.3386 -94.2561 250° West 364 419 16,700 -1,980 Descending Houston Center
05:28PM 29.3228 -94.3103 251° West 350 403 15,700 -1,920 Descending Houston Center
05:29PM 29.3072 -94.3586 250° West 346 398 14,700 -2,160 Descending Houston Center
05:29PM 29.2872 -94.4181 249° West 329 379 13,500 -2,040 Descending Houston Center
05:30PM 29.2758 -94.4569 251° West 335 386 12,600 -1,440 Descending Houston Center
05:30PM 29.2644 -94.5264 259° West 328 377 11,900 -600 Descending Houston Center
05:31PM 29.2608 -94.5822 266° West 331 381 12,000 -300 Climbing Houston Center
05:31PM 29.2567 -94.6400 265° West 327 376 11,600 -780 Descending Houston Center
05:32PM 29.2528 -94.6839 264° West 324 373 11,200 -1,020 Descending Houston Center
05:32PM 29.2486 -94.7319 264° West 277 319 10,600 -1,020 Descending Houston Center
05:33PM 29.2467 -94.7733 267° West 293 337 10,200 -1,020 Descending Houston Center
05:33PM 29.2425 -94.8214 264° West 277 319 9,600 -1,020 Descending Houston Center
05:34PM 29.2406 -94.8597 267° West 278 320 9,200 -1,020 Descending Houston Center
05:34PM 29.2364 -94.9086 264° West 269 310 8,600 -1,020 Descending Houston Center
05:35PM 29.2336 -94.9439 265° West 269 310 8,200 -1,140 Descending Houston Center
05:35PM 29.2297 -94.9956 265° West 262 302 7,500 -1,080 Descending Houston Center
05:36PM 29.2272 -95.0275 265° West 264 304 7,100 -1,260 Descending Houston Center
05:37PM 29.2231 -95.0778 265° West 258 297 6,200 -1,380 Descending Houston Center
05:37PM 29.2208 -95.1100 265° West 261 300 5,700 -840 Descending Houston Center